createdAt,value
2022-11-29T00:00:25.618Z,50.50
2022-11-29T00:01:25.614Z,53.70
2022-11-29T00:02:25.707Z,51.90
2022-11-29T00:03:25.614Z,58.70
2022-11-29T00:04:25.513Z,62.10
2022-11-29T00:05:25.492Z,65.90
2022-11-29T00:06:25.466Z,65.80
2022-11-29T00:07:25.477Z,68.50
2022-11-29T00:08:25.414Z,68.40
2022-11-29T00:09:25.387Z,65.10
2022-11-29T00:10:25.363Z,63.70
2022-11-29T00:11:25.337Z,54.60
2022-11-29T00:12:25.309Z,52.30
2022-11-29T00:13:25.288Z,54.90
2022-11-29T00:14:25.264Z,40.90
2022-11-29T00:15:25.233Z,51.60
2022-11-29T00:16:25.239Z,53.10
2022-11-29T00:17:25.238Z,56.10
2022-11-29T00:18:25.154Z,52.90
2022-11-29T00:19:25.129Z,54.20
2022-11-29T00:20:25.103Z,47.80
2022-11-29T00:21:25.080Z,57.60
2022-11-29T00:22:25.056Z,55.30
2022-11-29T00:23:25.029Z,53.90
2022-11-29T00:24:25.001Z,50.50
2022-11-29T00:25:24.976Z,46.20
2022-11-29T00:26:24.949Z,54.80
2022-11-29T00:27:24.926Z,54.90
2022-11-29T00:28:24.899Z,49.60
2022-11-29T00:29:24.873Z,49.40
2022-11-29T00:30:24.921Z,53.10
2022-11-29T00:31:24.824Z,51.70
2022-11-29T00:32:24.793Z,50.40
2022-11-29T00:33:24.880Z,50.00
2022-11-29T00:34:24.745Z,53.30
2022-11-29T00:35:24.724Z,49.10
2022-11-29T00:36:24.691Z,49.60
2022-11-29T00:37:24.668Z,51.50
2022-11-29T00:38:24.646Z,56.80
2022-11-29T00:39:24.619Z,54.10
2022-11-29T00:40:24.590Z,53.90
2022-11-29T00:41:24.564Z,50.40
2022-11-29T00:42:24.538Z,53.60
2022-11-29T00:43:24.513Z,50.50
2022-11-29T00:44:24.490Z,48.10
2022-11-29T00:45:24.463Z,57.20
2022-11-29T00:46:24.488Z,57.20
2022-11-29T00:47:24.410Z,57.80
2022-11-29T00:48:24.382Z,54.90
2022-11-29T00:49:24.380Z,68.70
2022-11-29T00:50:24.332Z,60.70
2022-11-29T00:51:24.308Z,53.70
2022-11-29T00:52:24.279Z,49.90
2022-11-29T00:53:24.256Z,57.50
2022-11-29T00:54:24.229Z,61.00
2022-11-29T00:55:24.201Z,55.70
2022-11-29T00:56:24.174Z,54.80
2022-11-29T00:57:24.152Z,59.00
2022-11-29T00:58:24.124Z,63.00
2022-11-29T00:59:24.099Z,52.50
2022-11-29T01:00:24.073Z,63.90
2022-11-29T01:01:24.149Z,54.10
2022-11-29T01:02:24.069Z,70.20
2022-11-29T01:03:23.996Z,57.60
2022-11-29T01:04:23.967Z,58.90
2022-11-29T01:05:23.964Z,63.60
2022-11-29T01:06:23.920Z,86.20
2022-11-29T01:07:23.927Z,80.70
2022-11-29T01:08:23.865Z,59.20
2022-11-29T01:09:23.841Z,59.70
2022-11-29T01:10:23.814Z,57.40
2022-11-29T01:11:23.792Z,61.50
2022-11-29T01:12:23.762Z,70.10
2022-11-29T01:13:23.738Z,60.00
2022-11-29T01:14:23.712Z,60.00
2022-11-29T01:15:23.688Z,60.50
2022-11-29T01:16:23.742Z,64.10
2022-11-29T01:17:23.632Z,54.10
2022-11-29T01:18:23.607Z,64.60
2022-11-29T01:19:23.581Z,66.90
2022-11-29T01:20:23.556Z,62.60
2022-11-29T01:21:23.552Z,55.10
2022-11-29T01:22:23.504Z,61.30
2022-11-29T01:23:23.477Z,62.90
2022-11-29T01:24:23.450Z,66.20
2022-11-29T01:25:23.428Z,61.80
2022-11-29T01:26:23.398Z,67.00
2022-11-29T01:27:23.374Z,67.60
2022-11-29T01:28:23.348Z,61.80
2022-11-29T01:29:23.320Z,65.30
2022-11-29T01:30:23.301Z,68.00
2022-11-29T01:31:23.268Z,60.40
2022-11-29T01:32:23.245Z,69.30
2022-11-29T01:33:23.218Z,62.20
2022-11-29T01:34:23.193Z,71.60
2022-11-29T01:35:23.171Z,62.20
2022-11-29T01:36:23.143Z,67.50
2022-11-29T01:37:23.130Z,69.10
2022-11-29T01:38:23.088Z,63.40
2022-11-29T01:39:23.063Z,67.80
2022-11-29T01:40:23.036Z,73.60
2022-11-29T01:41:23.011Z,67.50
2022-11-29T01:42:22.983Z,71.40
2022-11-29T01:43:22.960Z,71.10
2022-11-29T01:44:22.931Z,65.20
2022-11-29T01:45:22.906Z,64.00
2022-11-29T01:46:22.918Z,60.80
2022-11-29T01:47:22.853Z,61.70
2022-11-29T01:48:22.828Z,61.90
2022-11-29T01:49:22.800Z,64.20
2022-11-29T01:50:22.777Z,62.10
2022-11-29T01:51:22.747Z,61.40
2022-11-29T01:52:22.723Z,61.60
2022-11-29T01:53:22.716Z,60.30
2022-11-29T01:54:22.675Z,65.20
2022-11-29T01:55:22.650Z,67.30
2022-11-29T01:56:22.618Z,55.10
2022-11-29T01:57:22.594Z,65.70
2022-11-29T01:58:22.571Z,62.40
2022-11-29T01:59:22.541Z,64.70
2022-11-29T02:00:22.516Z,66.00
2022-11-29T02:01:22.567Z,60.70
2022-11-29T02:02:22.538Z,60.30
2022-11-29T02:03:22.440Z,56.60
2022-11-29T02:04:22.412Z,65.80
2022-11-29T02:05:22.383Z,69.70
2022-11-29T02:06:22.358Z,49.30
2022-11-29T02:07:22.394Z,61.80
2022-11-29T02:08:22.310Z,70.90
2022-11-29T02:09:22.300Z,61.90
2022-11-29T02:10:22.262Z,58.50
2022-11-29T02:11:22.230Z,60.90
2022-11-29T02:12:22.202Z,68.10
2022-11-29T02:13:22.174Z,64.60
2022-11-29T02:14:22.149Z,59.10
2022-11-29T02:15:22.122Z,62.90
2022-11-29T02:16:22.098Z,62.00
2022-11-29T02:17:22.068Z,55.80
2022-11-29T02:18:22.046Z,56.70
2022-11-29T02:19:22.017Z,57.60
2022-11-29T02:20:22.000Z,55.60
2022-11-29T02:21:21.965Z,61.00
2022-11-29T02:22:22.103Z,60.80
2022-11-29T02:23:21.912Z,54.60
2022-11-29T02:24:22.174Z,62.50
2022-11-29T02:25:21.885Z,58.40
2022-11-29T02:26:21.837Z,63.90
2022-11-29T02:27:21.809Z,67.00
2022-11-29T02:28:21.783Z,66.00
2022-11-29T02:29:21.757Z,82.40
2022-11-29T02:30:21.732Z,61.40
2022-11-29T02:31:21.703Z,59.70
2022-11-29T02:32:21.679Z,68.70
2022-11-29T02:33:21.657Z,59.50
2022-11-29T02:34:21.628Z,69.70
2022-11-29T02:35:21.600Z,70.10
2022-11-29T02:36:21.575Z,64.60
2022-11-29T02:37:21.550Z,63.80
2022-11-29T02:38:21.558Z,66.20
2022-11-29T02:39:21.495Z,63.50
2022-11-29T02:40:21.473Z,65.40
2022-11-29T02:41:21.460Z,68.10
2022-11-29T02:42:21.420Z,62.20
2022-11-29T02:43:21.392Z,64.70
2022-11-29T02:44:21.365Z,71.00
2022-11-29T02:45:21.340Z,60.20
2022-11-29T02:46:21.445Z,66.60
2022-11-29T02:47:21.286Z,71.90
2022-11-29T02:48:21.264Z,75.30
2022-11-29T02:49:21.235Z,62.20
2022-11-29T02:50:21.208Z,56.20
2022-11-29T02:51:21.183Z,64.70
2022-11-29T02:52:21.158Z,62.10
2022-11-29T02:53:21.129Z,64.50
2022-11-29T02:54:21.106Z,63.80
2022-11-29T02:55:21.079Z,60.30
2022-11-29T02:56:21.059Z,62.90
2022-11-29T02:57:21.064Z,61.50
2022-11-29T02:58:21.001Z,67.80
2022-11-29T02:59:20.974Z,64.10
2022-11-29T03:00:20.947Z,68.90
2022-11-29T03:01:20.948Z,59.00
2022-11-29T03:02:20.957Z,64.10
2022-11-29T03:03:20.870Z,55.80
2022-11-29T03:04:20.844Z,60.00
2022-11-29T03:05:20.817Z,61.80
2022-11-29T03:06:20.792Z,64.20
2022-11-29T03:07:20.812Z,54.30
2022-11-29T03:08:20.740Z,70.50
2022-11-29T03:09:20.715Z,66.80
2022-11-29T03:10:20.689Z,63.40
2022-11-29T03:11:20.670Z,59.40
2022-11-29T03:12:20.639Z,56.70
2022-11-29T03:13:20.629Z,58.20
2022-11-29T03:14:20.587Z,63.40
2022-11-29T03:15:20.560Z,64.10
2022-11-29T03:16:20.536Z,62.90
2022-11-29T03:17:20.508Z,61.20
2022-11-29T03:18:20.484Z,46.40
2022-11-29T03:19:20.456Z,60.80
2022-11-29T03:20:20.429Z,75.30
2022-11-29T03:21:20.403Z,61.80
2022-11-29T03:22:20.377Z,64.70
2022-11-29T03:23:20.352Z,69.10
2022-11-29T03:24:20.325Z,55.00
2022-11-29T03:25:20.300Z,50.70
2022-11-29T03:26:20.275Z,55.70
2022-11-29T03:27:20.248Z,57.40
2022-11-29T03:28:20.223Z,64.60
2022-11-29T03:29:20.216Z,61.30
2022-11-29T03:30:20.172Z,55.10
2022-11-29T03:31:20.202Z,55.60
2022-11-29T03:32:20.119Z,62.30
2022-11-29T03:33:20.092Z,67.40
2022-11-29T03:34:20.069Z,70.90
2022-11-29T03:35:20.041Z,62.40
2022-11-29T03:36:20.027Z,60.40
2022-11-29T03:37:19.992Z,62.40
2022-11-29T03:38:19.967Z,54.60
2022-11-29T03:39:19.938Z,72.20
2022-11-29T03:40:19.914Z,67.90
2022-11-29T03:41:19.886Z,65.10
2022-11-29T03:42:19.868Z,61.60
2022-11-29T03:43:19.835Z,56.10
2022-11-29T03:44:19.811Z,60.70
2022-11-29T03:45:19.805Z,63.20
2022-11-29T03:46:19.788Z,62.00
2022-11-29T03:47:19.729Z,61.00
2022-11-29T03:48:19.707Z,56.00
2022-11-29T03:49:19.682Z,53.10
2022-11-29T03:50:19.659Z,56.70
2022-11-29T03:51:19.630Z,69.20
2022-11-29T03:52:19.606Z,59.50
2022-11-29T03:53:19.576Z,58.90
2022-11-29T03:54:19.555Z,56.40
2022-11-29T03:55:19.527Z,71.00
2022-11-29T03:56:19.499Z,48.00
2022-11-29T03:57:19.476Z,54.60
2022-11-29T03:58:19.453Z,51.00
2022-11-29T03:59:19.425Z,63.50
2022-11-29T04:00:19.398Z,61.50
2022-11-29T04:01:19.433Z,54.70
2022-11-29T04:02:19.407Z,63.70
2022-11-29T04:03:19.319Z,58.90
2022-11-29T04:04:19.293Z,63.30
2022-11-29T04:05:19.267Z,55.80
2022-11-29T04:06:19.243Z,56.20
2022-11-29T04:07:19.330Z,57.00
2022-11-29T04:08:19.190Z,55.70
2022-11-29T04:09:19.162Z,64.50
2022-11-29T04:10:19.139Z,57.10
2022-11-29T04:11:19.110Z,65.70
2022-11-29T04:12:19.117Z,57.30
2022-11-29T04:13:19.059Z,53.90
2022-11-29T04:14:19.034Z,56.20
2022-11-29T04:15:19.007Z,60.50
2022-11-29T04:16:19.035Z,60.40
2022-11-29T04:17:18.980Z,57.40
2022-11-29T04:18:18.931Z,61.80
2022-11-29T04:19:18.904Z,64.60
2022-11-29T04:20:18.879Z,53.20
2022-11-29T04:21:18.851Z,51.50
2022-11-29T04:22:18.830Z,54.10
2022-11-29T04:23:18.799Z,61.80
2022-11-29T04:24:18.779Z,47.60
2022-11-29T04:25:18.749Z,50.10
2022-11-29T04:26:18.726Z,59.50
2022-11-29T04:27:18.696Z,50.30
2022-11-29T04:28:18.678Z,48.60
2022-11-29T04:29:18.646Z,53.70
2022-11-29T04:30:18.619Z,56.70
2022-11-29T04:31:18.653Z,56.30
2022-11-29T04:32:18.568Z,56.50
2022-11-29T04:33:18.561Z,59.00
2022-11-29T04:34:18.518Z,44.10
2022-11-29T04:35:18.490Z,50.00
2022-11-29T04:36:18.464Z,53.30
2022-11-29T04:37:18.466Z,51.80
2022-11-29T04:38:18.416Z,55.60
2022-11-29T04:39:18.391Z,53.00
2022-11-29T04:40:18.359Z,53.60
2022-11-29T04:41:18.332Z,52.80
2022-11-29T04:42:18.310Z,55.90
2022-11-29T04:43:18.281Z,53.20
2022-11-29T04:44:18.257Z,55.90
2022-11-29T04:45:18.237Z,55.40
2022-11-29T04:46:18.247Z,55.00
2022-11-29T04:47:18.212Z,55.40
2022-11-29T04:48:18.160Z,52.70
2022-11-29T04:49:18.153Z,46.30
2022-11-29T04:50:18.103Z,58.70
2022-11-29T04:51:18.076Z,58.60
2022-11-29T04:52:18.047Z,49.50
2022-11-29T04:53:18.021Z,42.40
2022-11-29T04:54:17.996Z,53.90
2022-11-29T04:55:24.984Z,55.00
2022-11-29T04:56:17.943Z,57.20
2022-11-29T04:57:17.915Z,50.50
2022-11-29T04:58:17.893Z,55.00
2022-11-29T04:59:17.867Z,56.70
2022-11-29T05:00:17.840Z,52.60
2022-11-29T05:01:17.883Z,45.50
2022-11-29T05:02:17.822Z,53.30
2022-11-29T05:03:17.768Z,46.00
2022-11-29T05:04:17.737Z,53.10
2022-11-29T05:05:17.727Z,54.00
2022-11-29T05:06:17.685Z,50.10
2022-11-29T05:07:17.706Z,51.10
2022-11-29T05:08:17.631Z,56.10
2022-11-29T05:09:17.603Z,53.90
2022-11-29T05:10:17.581Z,51.40
2022-11-29T05:11:22.040Z,51.70
2022-11-29T05:12:17.524Z,49.60
2022-11-29T05:13:17.503Z,54.50
2022-11-29T05:14:17.474Z,44.80
2022-11-29T05:15:17.450Z,53.30
2022-11-29T05:16:17.471Z,47.40
2022-11-29T05:17:17.395Z,54.00
2022-11-29T05:18:17.368Z,49.30
2022-11-29T05:19:17.341Z,53.50
2022-11-29T05:20:17.325Z,45.90
2022-11-29T05:21:17.310Z,48.30
2022-11-29T05:22:17.264Z,52.90
2022-11-29T05:23:17.237Z,46.90
2022-11-29T05:24:17.212Z,49.30
2022-11-29T05:25:17.186Z,49.40
2022-11-29T05:26:17.161Z,44.30
2022-11-29T05:27:17.132Z,47.00
2022-11-29T05:28:17.107Z,48.40
2022-11-29T05:29:17.082Z,49.70
2022-11-29T05:30:17.060Z,48.50
2022-11-29T05:31:17.048Z,48.50
2022-11-29T05:32:17.005Z,51.50
2022-11-29T05:33:16.977Z,44.50
2022-11-29T05:34:16.951Z,44.70
2022-11-29T05:35:16.926Z,48.80
2022-11-29T05:36:16.898Z,42.90
2022-11-29T05:37:16.906Z,46.20
2022-11-29T05:38:16.848Z,40.70
2022-11-29T05:39:16.819Z,46.70
2022-11-29T05:40:16.794Z,46.40
2022-11-29T05:41:16.768Z,45.90
2022-11-29T05:42:16.745Z,49.10
2022-11-29T05:43:16.720Z,43.90
2022-11-29T05:44:16.693Z,48.30
2022-11-29T05:45:16.666Z,43.10
2022-11-29T05:46:16.663Z,49.10
2022-11-29T05:47:16.612Z,44.50
2022-11-29T05:48:16.584Z,47.40
2022-11-29T05:49:16.560Z,41.60
2022-11-29T05:50:16.531Z,55.60
2022-11-29T05:51:16.506Z,48.00
2022-11-29T05:52:16.483Z,53.30
2022-11-29T05:53:16.478Z,48.10
2022-11-29T05:54:16.429Z,49.40
2022-11-29T05:55:16.408Z,45.90
2022-11-29T05:56:16.375Z,42.10
2022-11-29T05:57:16.354Z,48.00
2022-11-29T05:58:16.325Z,46.60
2022-11-29T05:59:16.300Z,43.10
2022-11-29T06:00:16.274Z,39.00
2022-11-29T06:01:16.247Z,47.70
2022-11-29T06:02:16.262Z,40.40
2022-11-29T06:03:16.252Z,45.10
2022-11-29T06:04:16.170Z,45.20
2022-11-29T06:05:16.143Z,44.10
2022-11-29T06:06:16.150Z,51.10
2022-11-29T06:07:16.241Z,42.80
2022-11-29T06:08:16.064Z,52.20
2022-11-29T06:09:16.061Z,50.00
2022-11-29T06:10:16.015Z,54.60
2022-11-29T06:11:15.993Z,56.20
2022-11-29T06:12:20.813Z,46.50
2022-11-29T06:13:15.939Z,55.30
2022-11-29T06:14:15.908Z,49.00
2022-11-29T06:15:15.883Z,52.70
2022-11-29T06:16:15.923Z,53.50
2022-11-29T06:17:15.835Z,39.60
2022-11-29T06:18:15.808Z,39.50
2022-11-29T06:19:15.854Z,50.90
2022-11-29T06:20:15.753Z,44.00
2022-11-29T06:21:15.730Z,42.10
2022-11-29T06:22:15.701Z,41.60
2022-11-29T06:23:15.678Z,45.80
2022-11-29T06:24:15.650Z,41.30
2022-11-29T06:25:15.648Z,45.20
2022-11-29T06:26:15.601Z,46.50
2022-11-29T06:27:15.573Z,44.10
2022-11-29T06:28:15.547Z,48.10
2022-11-29T06:29:15.520Z,37.50
2022-11-29T06:30:15.493Z,46.10
2022-11-29T06:31:15.521Z,47.30
2022-11-29T06:32:15.445Z,42.80
2022-11-29T06:33:15.416Z,43.60
2022-11-29T06:34:15.392Z,47.60
2022-11-29T06:35:15.364Z,41.30
2022-11-29T06:36:15.336Z,44.40
2022-11-29T06:37:15.316Z,42.50
2022-11-29T06:38:15.287Z,44.40
2022-11-29T06:39:15.261Z,50.60
2022-11-29T06:40:15.234Z,44.80
2022-11-29T06:41:15.229Z,51.00
2022-11-29T06:42:15.183Z,47.60
2022-11-29T06:43:15.162Z,52.70
2022-11-29T06:44:15.131Z,48.00
2022-11-29T06:45:15.121Z,47.90
2022-11-29T06:46:15.182Z,48.10
2022-11-29T06:47:15.053Z,50.60
2022-11-29T06:48:15.026Z,50.80
2022-11-29T06:49:15.000Z,51.10
2022-11-29T06:50:14.973Z,51.60
2022-11-29T06:51:14.949Z,41.20
2022-11-29T06:52:14.921Z,49.20
2022-11-29T06:53:14.897Z,47.30
2022-11-29T06:54:14.870Z,51.70
2022-11-29T06:55:14.844Z,55.00
2022-11-29T06:56:14.818Z,52.00
2022-11-29T06:57:14.816Z,53.50
2022-11-29T06:58:14.765Z,50.30
2022-11-29T06:59:14.740Z,50.30
2022-11-29T07:00:14.715Z,56.80
2022-11-29T07:01:14.715Z,62.40
2022-11-29T07:02:14.710Z,59.00
2022-11-29T07:03:14.636Z,51.60
2022-11-29T07:04:14.608Z,59.30
2022-11-29T07:05:14.584Z,58.90
2022-11-29T07:06:14.556Z,59.20
2022-11-29T07:07:14.576Z,61.00
2022-11-29T07:08:14.505Z,50.50
2022-11-29T07:09:14.480Z,59.30
2022-11-29T07:10:15.072Z,59.80
2022-11-29T07:11:14.433Z,48.90
2022-11-29T07:12:14.400Z,53.60
2022-11-29T07:13:14.395Z,52.80
2022-11-29T07:14:14.348Z,61.30
2022-11-29T07:15:14.324Z,53.90
2022-11-29T07:16:14.313Z,54.60
2022-11-29T07:17:14.272Z,61.50
2022-11-29T07:18:14.243Z,50.40
2022-11-29T07:19:14.220Z,48.30
2022-11-29T07:20:14.191Z,48.80
2022-11-29T07:21:14.167Z,58.60
2022-11-29T07:22:14.142Z,54.10
2022-11-29T07:23:14.124Z,57.60
2022-11-29T07:24:14.088Z,50.00
2022-11-29T07:25:14.063Z,57.70
2022-11-29T07:26:14.035Z,53.10
2022-11-29T07:27:14.213Z,56.60
2022-11-29T07:28:13.982Z,57.80
2022-11-29T07:29:13.984Z,62.00
2022-11-29T07:30:13.931Z,54.10
2022-11-29T07:31:13.949Z,58.70
2022-11-29T07:32:13.878Z,53.20
2022-11-29T07:33:13.854Z,54.30
2022-11-29T07:34:13.826Z,65.40
2022-11-29T07:35:13.802Z,56.90
2022-11-29T07:36:13.775Z,53.60
2022-11-29T07:37:13.750Z,57.60
2022-11-29T07:38:13.725Z,47.70
2022-11-29T07:39:13.700Z,58.30
2022-11-29T07:40:13.671Z,53.00
2022-11-29T07:41:13.649Z,61.70
2022-11-29T07:42:13.622Z,48.80
2022-11-29T07:43:13.594Z,56.80
2022-11-29T07:44:13.566Z,52.90
2022-11-29T07:45:13.561Z,56.10
2022-11-29T07:46:13.543Z,57.50
2022-11-29T07:47:13.564Z,57.00
2022-11-29T07:48:13.462Z,58.50
2022-11-29T07:49:13.438Z,57.40
2022-11-29T07:50:13.409Z,56.50
2022-11-29T07:51:13.387Z,57.00
2022-11-29T07:52:13.359Z,55.20
2022-11-29T07:53:13.334Z,51.30
2022-11-29T07:54:13.306Z,62.00
2022-11-29T07:55:18.513Z,55.70
2022-11-29T07:56:13.253Z,53.30
2022-11-29T07:57:13.235Z,56.90
2022-11-29T07:58:13.199Z,55.00
2022-11-29T07:59:13.176Z,53.50
2022-11-29T08:00:13.150Z,55.70
2022-11-29T08:01:13.184Z,55.40
2022-11-29T08:02:13.140Z,58.30
2022-11-29T08:03:13.073Z,50.50
2022-11-29T08:04:13.040Z,57.80
2022-11-29T08:05:13.017Z,65.00
2022-11-29T08:06:12.989Z,65.60
2022-11-29T08:07:12.966Z,72.50
2022-11-29T08:08:12.936Z,66.90
2022-11-29T08:09:12.912Z,57.10
2022-11-29T08:10:12.888Z,71.00
2022-11-29T08:11:12.863Z,57.00
2022-11-29T08:12:12.834Z,62.50
2022-11-29T08:13:12.809Z,67.90
2022-11-29T08:14:12.781Z,75.80
2022-11-29T08:15:12.757Z,64.00
2022-11-29T08:16:12.782Z,65.40
2022-11-29T08:17:12.720Z,73.40
2022-11-29T08:18:12.678Z,66.40
2022-11-29T08:19:12.651Z,75.90
2022-11-29T08:20:12.622Z,73.10
2022-11-29T08:21:12.597Z,73.90
2022-11-29T08:22:12.571Z,61.00
2022-11-29T08:23:12.553Z,67.30
2022-11-29T08:24:12.518Z,63.20
2022-11-29T08:25:12.500Z,70.30
2022-11-29T08:26:12.465Z,70.50
2022-11-29T08:27:12.443Z,63.50
2022-11-29T08:28:12.415Z,59.40
2022-11-29T08:29:12.389Z,71.40
2022-11-29T08:30:12.360Z,73.30
2022-11-29T08:31:12.361Z,74.50
2022-11-29T08:32:12.310Z,71.00
2022-11-29T08:33:12.306Z,62.50
2022-11-29T08:34:12.256Z,67.20
2022-11-29T08:35:12.236Z,69.20
2022-11-29T08:36:12.207Z,67.20
2022-11-29T08:37:12.188Z,60.70
2022-11-29T08:38:12.151Z,63.00
2022-11-29T08:39:12.134Z,61.50
2022-11-29T08:40:12.112Z,76.90
2022-11-29T08:41:12.078Z,71.20
2022-11-29T08:42:12.052Z,67.80
2022-11-29T08:43:12.021Z,58.50
2022-11-29T08:44:11.994Z,67.50
2022-11-29T08:45:11.973Z,73.00
2022-11-29T08:46:17.980Z,71.00
2022-11-29T08:47:11.929Z,68.90
2022-11-29T08:48:11.889Z,69.00
2022-11-29T08:49:11.889Z,75.90
2022-11-29T08:50:11.872Z,67.10
2022-11-29T08:51:11.820Z,71.00
2022-11-29T08:52:11.784Z,69.20
2022-11-29T08:53:11.762Z,73.40
2022-11-29T08:54:11.732Z,66.50
2022-11-29T08:55:11.715Z,89.70
2022-11-29T08:56:41.655Z,70.40
2022-11-29T08:57:40.565Z,69.10
2022-11-29T08:58:11.635Z,77.20
2022-11-29T08:59:11.607Z,78.00
2022-11-29T09:00:11.573Z,69.10
2022-11-29T09:01:11.566Z,64.30
2022-11-29T09:02:11.577Z,71.90
2022-11-29T09:03:11.504Z,67.90
2022-11-29T09:04:11.470Z,72.30
2022-11-29T09:05:11.464Z,83.30
2022-11-29T09:06:12.670Z,77.40
2022-11-29T09:07:11.396Z,66.20
2022-11-29T09:08:11.409Z,62.20
2022-11-29T09:09:11.396Z,73.90
2022-11-29T09:10:11.390Z,74.30
2022-11-29T09:11:11.342Z,65.50
2022-11-29T09:12:11.321Z,79.20
2022-11-29T09:13:11.292Z,79.30
2022-11-29T09:14:11.267Z,81.10
2022-11-29T09:15:11.228Z,76.20
2022-11-29T09:16:11.317Z,77.10
2022-11-29T09:17:11.181Z,69.60
2022-11-29T09:18:11.203Z,71.20
2022-11-29T09:19:11.114Z,77.80
2022-11-29T09:20:11.113Z,67.50
2022-11-29T09:21:11.138Z,69.90
2022-11-29T09:22:11.050Z,86.10
2022-11-29T09:23:11.019Z,89.20
2022-11-29T09:24:10.942Z,70.90
2022-11-29T09:25:10.916Z,72.10
2022-11-29T09:26:10.891Z,83.70
2022-11-29T09:27:10.865Z,68.10
2022-11-29T09:28:10.838Z,57.50
2022-11-29T09:29:10.894Z,78.50
2022-11-29T09:30:10.837Z,64.90
2022-11-29T09:31:10.865Z,67.50
2022-11-29T09:32:10.769Z,63.80
2022-11-29T09:33:10.795Z,60.70
2022-11-29T09:34:10.806Z,57.90
2022-11-29T09:35:10.710Z,46.10
2022-11-29T09:36:10.702Z,55.80
2022-11-29T09:37:10.636Z,68.70
2022-11-29T09:38:10.650Z,51.80
2022-11-29T09:39:10.562Z,56.80
2022-11-29T09:40:10.574Z,58.90
2022-11-29T09:41:10.516Z,57.10
2022-11-29T09:42:10.499Z,59.00
2022-11-29T09:43:10.567Z,55.80
2022-11-29T09:44:10.455Z,61.90
2022-11-29T09:45:10.438Z,58.40
2022-11-29T09:46:10.533Z,55.40
2022-11-29T09:47:10.412Z,54.20
2022-11-29T09:48:10.356Z,54.20
2022-11-29T09:49:10.346Z,59.80
2022-11-29T09:50:10.310Z,51.20
2022-11-29T09:51:10.298Z,59.30
2022-11-29T09:52:10.237Z,52.20
2022-11-29T09:53:10.261Z,61.50
2022-11-29T09:54:10.167Z,56.20
2022-11-29T09:55:10.138Z,69.00
2022-11-29T09:56:10.177Z,56.50
2022-11-29T09:57:11.061Z,54.80
2022-11-29T09:58:10.100Z,55.90
2022-11-29T09:59:10.125Z,59.80
2022-11-29T10:00:10.050Z,47.90
2022-11-29T10:01:10.119Z,47.30
2022-11-29T10:02:09.987Z,54.10
2022-11-29T10:03:09.922Z,53.80
2022-11-29T10:04:09.892Z,50.10
2022-11-29T10:05:09.862Z,55.20
2022-11-29T10:06:09.836Z,46.70
2022-11-29T10:07:09.807Z,51.20
2022-11-29T10:08:09.781Z,45.70
2022-11-29T10:09:09.767Z,44.90
2022-11-29T10:10:09.728Z,47.60
2022-11-29T10:11:09.700Z,58.10
2022-11-29T10:12:09.727Z,52.00
2022-11-29T10:13:09.721Z,57.10
2022-11-29T10:14:09.719Z,50.70
2022-11-29T10:15:09.660Z,53.50
2022-11-29T10:16:09.640Z,53.70
2022-11-29T10:17:09.599Z,57.60
2022-11-29T10:18:09.641Z,54.20
2022-11-29T10:19:09.535Z,43.10
2022-11-29T10:20:09.537Z,47.40
2022-11-29T10:21:09.442Z,54.10
2022-11-29T10:22:09.408Z,61.20
2022-11-29T10:23:09.385Z,46.40
2022-11-29T10:24:09.357Z,51.10
2022-11-29T10:25:09.372Z,71.10
2022-11-29T10:26:09.301Z,55.30
2022-11-29T10:27:09.281Z,53.80
2022-11-29T10:28:09.321Z,49.60
2022-11-29T10:29:09.222Z,52.30
2022-11-29T10:30:09.194Z,53.20
2022-11-29T10:31:09.195Z,55.90
2022-11-29T10:32:10.453Z,56.70
2022-11-29T10:33:09.157Z,55.50
2022-11-29T10:34:09.088Z,55.60
2022-11-29T10:35:09.069Z,51.50
2022-11-29T10:36:09.037Z,54.80
2022-11-29T10:37:09.011Z,62.00
2022-11-29T10:39:14.306Z,48.50
2022-11-29T10:40:08.942Z,58.30
2022-11-29T10:41:08.927Z,60.30
2022-11-29T10:42:08.878Z,53.10
2022-11-29T10:43:08.868Z,62.30
2022-11-29T10:44:08.824Z,58.00
2022-11-29T10:45:08.803Z,52.90
2022-11-29T10:46:08.831Z,55.20
2022-11-29T10:47:11.091Z,50.70
2022-11-29T10:48:08.801Z,61.30
2022-11-29T10:49:08.699Z,57.40
2022-11-29T10:50:08.679Z,50.20
2022-11-29T10:51:08.644Z,57.20
2022-11-29T10:52:08.619Z,54.20
2022-11-29T10:53:08.601Z,53.80
2022-11-29T10:54:08.567Z,52.50
2022-11-29T10:55:08.535Z,48.00
2022-11-29T10:56:08.503Z,46.70
2022-11-29T10:57:08.513Z,49.70
2022-11-29T10:58:08.449Z,42.20
2022-11-29T10:59:08.424Z,50.50
2022-11-29T11:00:08.397Z,47.20
2022-11-29T11:01:08.497Z,49.50
2022-11-29T11:02:08.349Z,54.00
2022-11-29T11:03:08.321Z,53.00
2022-11-29T11:04:08.293Z,52.80
2022-11-29T11:05:08.263Z,51.00
2022-11-29T11:06:08.239Z,45.50
2022-11-29T11:07:08.210Z,46.90
2022-11-29T11:08:08.189Z,58.00
2022-11-29T11:09:08.159Z,46.00
2022-11-29T11:10:08.134Z,44.20
2022-11-29T11:11:08.106Z,51.30
2022-11-29T11:12:08.080Z,49.80
2022-11-29T11:13:08.073Z,54.10
2022-11-29T11:14:08.026Z,49.60
2022-11-29T11:15:07.997Z,47.10
2022-11-29T11:16:07.972Z,50.30
2022-11-29T11:17:07.966Z,56.20
2022-11-29T11:18:07.922Z,56.80
2022-11-29T11:19:07.891Z,50.40
2022-11-29T11:20:07.868Z,46.70
2022-11-29T11:21:07.837Z,55.60
2022-11-29T11:22:07.811Z,51.80
2022-11-29T11:23:07.786Z,55.50
2022-11-29T11:24:07.760Z,46.50
2022-11-29T11:25:07.733Z,49.00
2022-11-29T11:26:07.707Z,55.20
2022-11-29T11:27:07.683Z,51.40
2022-11-29T11:28:07.658Z,59.60
2022-11-29T11:29:07.649Z,49.90
2022-11-29T11:30:07.602Z,59.20
2022-11-29T11:31:07.608Z,45.70
2022-11-29T11:32:07.548Z,58.90
2022-11-29T11:33:07.520Z,49.50
2022-11-29T11:34:07.493Z,52.70
2022-11-29T11:35:07.469Z,51.80
2022-11-29T11:36:07.443Z,51.90
2022-11-29T11:37:07.419Z,61.20
2022-11-29T11:38:07.392Z,53.90
2022-11-29T11:39:07.361Z,52.20
2022-11-29T11:40:07.398Z,60.30
2022-11-29T11:41:07.309Z,50.60
2022-11-29T11:42:07.290Z,51.80
2022-11-29T11:43:07.256Z,51.40
2022-11-29T11:44:15.390Z,53.30
2022-11-29T11:45:07.294Z,42.80
2022-11-29T11:46:08.293Z,53.60
2022-11-29T11:47:07.156Z,45.10
2022-11-29T11:48:07.125Z,52.90
2022-11-29T11:49:07.113Z,53.40
2022-11-29T11:50:07.073Z,48.90
2022-11-29T11:51:07.045Z,43.30
2022-11-29T11:52:07.018Z,43.40
2022-11-29T11:53:06.994Z,39.20
2022-11-29T11:54:06.989Z,44.40
2022-11-29T11:55:06.950Z,48.60
2022-11-29T11:56:06.917Z,46.90
2022-11-29T11:57:06.884Z,42.90
2022-11-29T11:58:10.106Z,40.00
2022-11-29T11:59:06.833Z,43.60
2022-11-29T12:00:07.448Z,49.10
2022-11-29T12:01:06.888Z,44.00
2022-11-29T12:02:06.832Z,47.20
2022-11-29T12:03:06.826Z,42.40
2022-11-29T12:04:06.717Z,37.60
2022-11-29T12:05:06.687Z,37.80
2022-11-29T12:06:06.662Z,50.10
2022-11-29T12:07:06.624Z,47.90
2022-11-29T12:08:08.489Z,47.20
2022-11-29T12:09:06.586Z,43.10
2022-11-29T12:10:06.560Z,46.70
2022-11-29T12:11:07.580Z,43.90
2022-11-29T12:12:06.500Z,50.10
2022-11-29T12:13:06.472Z,50.80
2022-11-29T12:14:06.444Z,50.90
2022-11-29T12:15:06.415Z,42.50
2022-11-29T12:16:06.451Z,49.00
2022-11-29T12:17:06.401Z,43.40
2022-11-29T12:18:06.463Z,46.10
2022-11-29T12:19:06.325Z,43.50
2022-11-29T12:20:06.288Z,45.90
2022-11-29T12:21:06.289Z,43.60
2022-11-29T12:22:06.241Z,42.10
2022-11-29T12:23:06.204Z,49.20
2022-11-29T12:24:06.183Z,46.10
2022-11-29T12:25:06.156Z,54.50
2022-11-29T12:26:06.195Z,43.20
2022-11-29T12:27:06.241Z,44.50
2022-11-29T12:28:06.068Z,46.50
2022-11-29T12:29:06.042Z,41.40
2022-11-29T12:30:06.020Z,42.30
2022-11-29T12:31:06.046Z,46.30
2022-11-29T12:32:05.962Z,51.30
2022-11-29T12:33:05.956Z,57.30
2022-11-29T12:34:05.913Z,45.00
2022-11-29T12:35:05.882Z,48.60
2022-11-29T12:36:05.857Z,49.20
2022-11-29T12:37:05.831Z,58.70
2022-11-29T12:38:05.807Z,43.30
2022-11-29T12:39:05.778Z,44.20
2022-11-29T12:40:05.752Z,43.20
2022-11-29T12:41:05.727Z,51.70
2022-11-29T12:42:05.707Z,50.70
2022-11-29T12:43:05.676Z,47.10
2022-11-29T12:44:05.667Z,49.50
2022-11-29T12:45:05.619Z,51.80
2022-11-29T12:46:05.699Z,51.80
2022-11-29T12:47:34.807Z,54.60
2022-11-29T12:48:05.540Z,53.70
2022-11-29T12:49:05.556Z,56.70
2022-11-29T12:50:05.496Z,49.90
2022-11-29T12:51:05.460Z,53.70
2022-11-29T12:52:05.437Z,49.00
2022-11-29T12:53:05.415Z,56.40